sensor_id;sensor_type;location;lat;lon;timestamp;pressure;altitude;pressure_sealevel;temperature;humidity
75219;BME280;63801;49.414;19.474;2023-08-08T00:00:33;93620.41;;;12.29;85.79
75219;BME280;63801;49.414;19.474;2023-08-08T00:02:34;93613.78;;;12.26;85.41
75219;BME280;63801;49.414;19.474;2023-08-08T00:04:34;93619.19;;;12.26;85.51
75219;BME280;63801;49.414;19.474;2023-08-08T00:06:35;93625.38;;;12.27;85.86
75219;BME280;63801;49.414;19.474;2023-08-08T00:08:35;93624.19;;;12.24;85.49
75219;BME280;63801;49.414;19.474;2023-08-08T00:10:36;93622.59;;;12.20;85.79
75219;BME280;63801;49.414;19.474;2023-08-08T00:12:36;93620.38;;;12.25;85.88
75219;BME280;63801;49.414;19.474;2023-08-08T00:14:36;93625.78;;;12.25;85.52
75219;BME280;63801;49.414;19.474;2023-08-08T00:16:37;93619.16;;;12.23;85.51
75219;BME280;63801;49.414;19.474;2023-08-08T00:18:37;93616.81;;;12.21;85.63
75219;BME280;63801;49.414;19.474;2023-08-08T00:20:37;93628.09;;;12.27;85.79
75219;BME280;63801;49.414;19.474;2023-08-08T00:22:38;93621.06;;;12.22;85.60
75219;BME280;63801;49.414;19.474;2023-08-08T00:24:38;93627.38;;;12.30;85.86
75219;BME280;63801;49.414;19.474;2023-08-08T00:26:38;93620.66;;;12.20;85.62
75219;BME280;63801;49.414;19.474;2023-08-08T00:28:39;93630.09;;;12.30;85.35
75219;BME280;63801;49.414;19.474;2023-08-08T00:30:39;93630.78;;;12.27;85.58
75219;BME280;63801;49.414;19.474;2023-08-08T00:32:39;93635.00;;;12.24;85.37
75219;BME280;63801;49.414;19.474;2023-08-08T00:34:40;93642.78;;;12.26;85.56
75219;BME280;63801;49.414;19.474;2023-08-08T00:36:40;93640.41;;;12.24;85.53
75219;BME280;63801;49.414;19.474;2023-08-08T00:38:40;93647.75;;;12.24;85.31
75219;BME280;63801;49.414;19.474;2023-08-08T00:40:41;93642.69;;;12.22;85.47
75219;BME280;63801;49.414;19.474;2023-08-08T00:42:41;93648.09;;;12.22;85.23
75219;BME280;63801;49.414;19.474;2023-08-08T00:44:41;93651.59;;;12.23;85.56
75219;BME280;63801;49.414;19.474;2023-08-08T00:46:42;93656.94;;;12.19;85.70
75219;BME280;63801;49.414;19.474;2023-08-08T00:48:42;93653.09;;;12.20;85.57
75219;BME280;63801;49.414;19.474;2023-08-08T00:50:43;93655.00;;;12.20;85.52
75219;BME280;63801;49.414;19.474;2023-08-08T00:52:47;93647.19;;;12.14;85.52
75219;BME280;63801;49.414;19.474;2023-08-08T00:54:48;93651.09;;;12.17;85.64
75219;BME280;63801;49.414;19.474;2023-08-08T00:56:48;93654.13;;;12.12;85.89
75219;BME280;63801;49.414;19.474;2023-08-08T00:58:48;93663.34;;;12.11;85.58
75219;BME280;63801;49.414;19.474;2023-08-08T01:00:50;93666.41;;;12.09;85.48
75219;BME280;63801;49.414;19.474;2023-08-08T01:02:52;93665.28;;;12.10;85.77
75219;BME280;63801;49.414;19.474;2023-08-08T01:04:52;93669.94;;;12.13;85.74
75219;BME280;63801;49.414;19.474;2023-08-08T01:09:23;93658.97;;;12.03;85.21
75219;BME280;63801;49.414;19.474;2023-08-08T01:11:25;93663.88;;;11.97;85.43
75219;BME280;63801;49.414;19.474;2023-08-08T01:13:28;93674.69;;;11.97;85.24
75219;BME280;63801;49.414;19.474;2023-08-08T01:15:32;93668.09;;;11.95;84.97
75219;BME280;63801;49.414;19.474;2023-08-08T01:17:36;93663.75;;;11.90;85.04
75219;BME280;63801;49.414;19.474;2023-08-08T01:19:37;93649.56;;;11.74;84.57
75219;BME280;63801;49.414;19.474;2023-08-08T01:21:37;93648.41;;;11.75;84.47
75219;BME280;63801;49.414;19.474;2023-08-08T01:23:45;93658.94;;;11.80;84.59
75219;BME280;63801;49.414;19.474;2023-08-08T01:25:47;93661.19;;;11.78;84.72
75219;BME280;63801;49.414;19.474;2023-08-08T01:27:48;93665.06;;;11.77;84.61
75219;BME280;63801;49.414;19.474;2023-08-08T01:29:48;93656.38;;;11.68;84.73
75219;BME280;63801;49.414;19.474;2023-08-08T01:31:49;93678.38;;;11.70;84.56
75219;BME280;63801;49.414;19.474;2023-08-08T01:33:49;93667.19;;;11.68;84.76
75219;BME280;63801;49.414;19.474;2023-08-08T01:35:54;93672.13;;;11.66;84.30
75219;BME280;63801;49.414;19.474;2023-08-08T01:38:20;93677.09;;;11.64;84.33
75219;BME280;63801;49.414;19.474;2023-08-08T01:40:23;93679.38;;;11.62;84.41
75219;BME280;63801;49.414;19.474;2023-08-08T01:42:24;93676.97;;;11.57;84.26
75219;BME280;63801;49.414;19.474;2023-08-08T01:44:26;93686.63;;;11.58;nan
75219;BME280;63801;49.414;19.474;2023-08-08T01:46:27;93684.66;;;11.55;84.34
75219;BME280;63801;49.414;19.474;2023-08-08T01:48:28;93681.06;;;11.51;84.10
75219;BME280;63801;49.414;19.474;2023-08-08T01:50:28;93679.53;;;11.50;84.12
75219;BME280;63801;49.414;19.474;2023-08-08T01:52:29;93678.38;;;11.51;84.48
75219;BME280;63801;49.414;19.474;2023-08-08T01:54:29;93684.09;;;11.46;84.26
75219;BME280;63801;49.414;19.474;2023-08-08T01:56:29;93691.81;;;11.47;84.25
75219;BME280;63801;49.414;19.474;2023-08-08T01:58:29;93690.63;;;11.45;84.27
75219;BME280;63801;49.414;19.474;2023-08-08T02:00:30;93692.41;;;11.37;84.00
75219;BME280;63801;49.414;19.474;2023-08-08T02:02:30;93699.25;;;11.35;83.97
75219;BME280;63801;49.414;19.474;2023-08-08T02:04:30;93697.97;;;11.28;84.31
75219;BME280;63801;49.414;19.474;2023-08-08T02:06:31;93715.59;;;11.22;84.13
75219;BME280;63801;49.414;19.474;2023-08-08T02:08:31;93711.66;;;11.20;84.35
75219;BME280;63801;49.414;19.474;2023-08-08T02:10:31;93713.16;;;11.17;84.05
75219;BME280;63801;49.414;19.474;2023-08-08T02:12:32;93695.97;;;11.06;84.36
75219;BME280;63801;49.414;19.474;2023-08-08T02:14:33;93703.88;;;11.15;84.31
75219;BME280;63801;49.414;19.474;2023-08-08T02:16:33;93713.44;;;11.12;84.36
75219;BME280;63801;49.414;19.474;2023-08-08T02:18:34;93711.44;;;11.09;83.98
75219;BME280;63801;49.414;19.474;2023-08-08T02:20:36;93711.00;;;11.07;84.08
75219;BME280;63801;49.414;19.474;2023-08-08T02:22:36;93704.75;;;11.03;84.09
75219;BME280;63801;49.414;19.474;2023-08-08T02:24:37;93717.81;;;11.01;84.33
75219;BME280;63801;49.414;19.474;2023-08-08T02:26:38;93710.84;;;11.00;84.37
75219;BME280;63801;49.414;19.474;2023-08-08T02:28:38;93712.78;;;11.00;84.15
75219;BME280;63801;49.414;19.474;2023-08-08T02:30:38;93708.09;;;10.97;83.95
75219;BME280;63801;49.414;19.474;2023-08-08T02:32:39;93708.69;;;10.90;83.81
75219;BME280;63801;49.414;19.474;2023-08-08T02:34:39;93720.19;;;10.87;84.09
75219;BME280;63801;49.414;19.474;2023-08-08T02:36:39;93719.66;;;10.81;84.00
75219;BME280;63801;49.414;19.474;2023-08-08T02:38:40;93714.47;;;10.73;84.12
75219;BME280;63801;49.414;19.474;2023-08-08T02:40:40;93724.13;;;10.74;84.46
75219;BME280;63801;49.414;19.474;2023-08-08T02:42:40;93725.94;;;10.70;84.49
75219;BME280;63801;49.414;19.474;2023-08-08T02:44:41;93722.28;;;10.62;84.23
75219;BME280;63801;49.414;19.474;2023-08-08T02:46:41;93719.59;;;10.62;84.51
75219;BME280;63801;49.414;19.474;2023-08-08T02:48:41;93723.84;;;10.63;84.31
75219;BME280;63801;49.414;19.474;2023-08-08T02:50:42;93718.84;;;10.62;84.22
75219;BME280;63801;49.414;19.474;2023-08-08T02:52:42;93726.47;;;10.60;84.22
75219;BME280;63801;49.414;19.474;2023-08-08T02:54:42;93717.94;;;10.42;84.36
75219;BME280;63801;49.414;19.474;2023-08-08T02:56:43;93726.72;;;10.55;84.40
75219;BME280;63801;49.414;19.474;2023-08-08T02:58:43;93731.69;;;10.53;84.48
75219;BME280;63801;49.414;19.474;2023-08-08T03:00:43;93726.56;;;10.48;84.53
75219;BME280;63801;49.414;19.474;2023-08-08T03:02:44;93730.03;;;10.48;84.47
75219;BME280;63801;49.414;19.474;2023-08-08T03:04:44;93740.19;;;10.55;84.45
75219;BME280;63801;49.414;19.474;2023-08-08T03:06:44;93737.09;;;10.53;84.42
75219;BME280;63801;49.414;19.474;2023-08-08T03:08:45;93740.91;;;10.52;84.61
75219;BME280;63801;49.414;19.474;2023-08-08T03:10:45;93735.53;;;10.52;84.33
75219;BME280;63801;49.414;19.474;2023-08-08T03:12:45;93738.22;;;10.52;84.39
75219;BME280;63801;49.414;19.474;2023-08-08T03:14:46;93728.66;;;10.39;84.29
75219;BME280;63801;49.414;19.474;2023-08-08T03:16:46;93752.03;;;10.50;84.47
75219;BME280;63801;49.414;19.474;2023-08-08T03:18:47;93739.06;;;10.40;84.79
75219;BME280;63801;49.414;19.474;2023-08-08T03:20:47;93757.50;;;10.54;84.77
75219;BME280;63801;49.414;19.474;2023-08-08T03:22:47;93754.47;;;10.55;84.64
75219;BME280;63801;49.414;19.474;2023-08-08T03:24:48;93763.00;;;10.57;84.82
75219;BME280;63801;49.414;19.474;2023-08-08T03:26:48;93762.38;;;10.64;85.06
75219;BME280;63801;49.414;19.474;2023-08-08T03:28:49;93753.69;;;10.55;84.87
75219;BME280;63801;49.414;19.474;2023-08-08T03:30:50;93772.19;;;10.72;84.76
75219;BME280;63801;49.414;19.474;2023-08-08T03:32:51;93769.97;;;10.74;84.70
75219;BME280;63801;49.414;19.474;2023-08-08T03:34:51;93776.63;;;10.80;84.73
75219;BME280;63801;49.414;19.474;2023-08-08T03:36:51;93779.06;;;10.85;84.90
75219;BME280;63801;49.414;19.474;2023-08-08T03:38:52;93774.13;;;10.87;84.69
75219;BME280;63801;49.414;19.474;2023-08-08T03:40:52;93786.13;;;10.90;84.10
75219;BME280;63801;49.414;19.474;2023-08-08T03:42:52;93757.41;;;10.81;84.61
75219;BME280;63801;49.414;19.474;2023-08-08T03:44:52;93778.91;;;10.94;84.36
75219;BME280;63801;49.414;19.474;2023-08-08T03:46:53;93782.03;;;10.96;83.93
75219;BME280;63801;49.414;19.474;2023-08-08T03:48:53;93782.13;;;10.99;84.23
75219;BME280;63801;49.414;19.474;2023-08-08T03:50:53;93774.91;;;10.88;84.36
75219;BME280;63801;49.414;19.474;2023-08-08T03:52:54;93782.56;;;11.01;84.58
75219;BME280;63801;49.414;19.474;2023-08-08T03:54:54;93792.66;;;11.04;84.31
75219;BME280;63801;49.414;19.474;2023-08-08T03:56:54;93799.63;;;11.05;84.44
75219;BME280;63801;49.414;19.474;2023-08-08T03:58:55;93792.38;;;11.09;84.55
75219;BME280;63801;49.414;19.474;2023-08-08T04:00:56;93799.75;;;11.12;84.48
75219;BME280;63801;49.414;19.474;2023-08-08T04:02:57;93790.22;;;11.15;84.67
75219;BME280;63801;49.414;19.474;2023-08-08T04:04:57;93793.13;;;11.25;85.00
75219;BME280;63801;49.414;19.474;2023-08-08T04:07:00;93781.81;;;11.36;85.18
75219;BME280;63801;49.414;19.474;2023-08-08T04:09:00;93799.22;;;11.73;85.69
75219;BME280;63801;49.414;19.474;2023-08-08T04:11:01;93803.88;;;12.11;84.92
75219;BME280;63801;49.414;19.474;2023-08-08T04:13:01;93793.69;;;12.43;83.99
75219;BME280;63801;49.414;19.474;2023-08-08T04:15:01;93799.53;;;12.90;83.01
75219;BME280;63801;49.414;19.474;2023-08-08T04:17:02;93808.03;;;13.12;81.92
75219;BME280;63801;49.414;19.474;2023-08-08T04:19:03;93808.03;;;13.12;80.97
75219;BME280;63801;49.414;19.474;2023-08-08T04:21:04;93809.03;;;13.03;81.41
75219;BME280;63801;49.414;19.474;2023-08-08T04:23:04;93812.34;;;12.93;81.13
75219;BME280;63801;49.414;19.474;2023-08-08T04:25:05;93807.91;;;12.82;80.95
75219;BME280;63801;49.414;19.474;2023-08-08T04:27:06;93803.00;;;12.68;81.59
75219;BME280;63801;49.414;19.474;2023-08-08T04:29:06;93812.16;;;13.05;83.09
75219;BME280;63801;49.414;19.474;2023-08-08T04:31:06;93806.19;;;13.42;81.36
75219;BME280;63801;49.414;19.474;2023-08-08T04:33:07;93807.75;;;13.43;80.17
75219;BME280;63801;49.414;19.474;2023-08-08T04:35:07;93808.06;;;13.38;80.28
75219;BME280;63801;49.414;19.474;2023-08-08T04:37:08;93810.50;;;13.46;80.11
75219;BME280;63801;49.414;19.474;2023-08-08T04:39:08;93813.47;;;13.64;80.17
75219;BME280;63801;49.414;19.474;2023-08-08T04:41:08;93812.22;;;13.84;80.02
75219;BME280;63801;49.414;19.474;2023-08-08T04:43:09;93819.28;;;14.22;79.53
75219;BME280;63801;49.414;19.474;2023-08-08T04:45:09;93822.41;;;14.54;78.35
75219;BME280;63801;49.414;19.474;2023-08-08T04:47:10;93829.19;;;14.74;77.93
75219;BME280;63801;49.414;19.474;2023-08-08T04:49:11;93828.66;;;14.99;77.38
75219;BME280;63801;49.414;19.474;2023-08-08T04:51:11;93835.56;;;15.33;76.51
75219;BME280;63801;49.414;19.474;2023-08-08T04:53:11;93833.59;;;15.78;75.12
75219;BME280;63801;49.414;19.474;2023-08-08T04:55:12;93836.16;;;16.18;73.55
75219;BME280;63801;49.414;19.474;2023-08-08T04:57:12;93837.94;;;16.65;72.99
75219;BME280;63801;49.414;19.474;2023-08-08T04:59:13;93828.69;;;16.98;72.55
75219;BME280;63801;49.414;19.474;2023-08-08T05:01:13;93847.41;;;17.31;70.45
75219;BME280;63801;49.414;19.474;2023-08-08T05:03:15;93856.44;;;17.60;70.46
75219;BME280;63801;49.414;19.474;2023-08-08T05:05:16;93849.78;;;17.93;69.46
75219;BME280;63801;49.414;19.474;2023-08-08T05:07:16;93833.75;;;18.20;68.90
75219;BME280;63801;49.414;19.474;2023-08-08T05:09:17;93847.72;;;18.39;67.85
75219;BME280;63801;49.414;19.474;2023-08-08T05:11:17;93849.25;;;18.62;66.43
75219;BME280;63801;49.414;19.474;2023-08-08T05:13:18;93858.06;;;18.94;64.40
75219;BME280;63801;49.414;19.474;2023-08-08T05:15:18;93852.94;;;19.07;63.19
75219;BME280;63801;49.414;19.474;2023-08-08T05:17:18;93843.81;;;19.27;63.57
75219;BME280;63801;49.414;19.474;2023-08-08T05:19:18;93852.25;;;19.54;63.23
75219;BME280;63801;49.414;19.474;2023-08-08T05:21:19;93854.56;;;19.59;61.20
75219;BME280;63801;49.414;19.474;2023-08-08T05:23:20;93849.00;;;19.70;61.50
75219;BME280;63801;49.414;19.474;2023-08-08T05:25:20;93852.84;;;19.76;58.61
75219;BME280;63801;49.414;19.474;2023-08-08T05:27:20;93852.38;;;19.33;60.55
75219;BME280;63801;49.414;19.474;2023-08-08T05:29:21;93863.88;;;19.07;61.30
75219;BME280;63801;49.414;19.474;2023-08-08T05:31:21;93861.19;;;18.96;61.95
75219;BME280;63801;49.414;19.474;2023-08-08T05:33:22;93861.34;;;18.57;60.11
75219;BME280;63801;49.414;19.474;2023-08-08T05:35:22;93866.16;;;18.00;60.66
75219;BME280;63801;49.414;19.474;2023-08-08T05:37:23;93863.78;;;17.38;61.40
75219;BME280;63801;49.414;19.474;2023-08-08T05:39:24;93871.16;;;17.24;63.06
75219;BME280;63801;49.414;19.474;2023-08-08T05:41:24;93867.25;;;17.07;62.77
75219;BME280;63801;49.414;19.474;2023-08-08T05:43:24;93864.19;;;17.30;64.86
75219;BME280;63801;49.414;19.474;2023-08-08T05:45:25;93862.66;;;17.68;63.59
75219;BME280;63801;49.414;19.474;2023-08-08T05:47:25;93859.81;;;18.42;63.60
75219;BME280;63801;49.414;19.474;2023-08-08T05:49:25;93865.94;;;18.85;61.65
75219;BME280;63801;49.414;19.474;2023-08-08T05:51:26;93857.69;;;18.92;61.27
75219;BME280;63801;49.414;19.474;2023-08-08T05:53:26;93862.91;;;19.38;59.76
75219;BME280;63801;49.414;19.474;2023-08-08T05:55:26;93863.47;;;19.67;58.32
75219;BME280;63801;49.414;19.474;2023-08-08T05:57:27;93859.91;;;19.77;58.89
75219;BME280;63801;49.414;19.474;2023-08-08T05:59:27;93868.44;;;20.31;57.95
75219;BME280;63801;49.414;19.474;2023-08-08T06:01:27;93875.19;;;20.90;56.85
75219;BME280;63801;49.414;19.474;2023-08-08T06:03:28;93863.19;;;21.41;56.33
75219;BME280;63801;49.414;19.474;2023-08-08T06:05:28;93882.78;;;21.93;56.19
75219;BME280;63801;49.414;19.474;2023-08-08T06:07:28;93889.47;;;22.39;54.92
75219;BME280;63801;49.414;19.474;2023-08-08T06:09:29;93879.28;;;22.59;52.20
75219;BME280;63801;49.414;19.474;2023-08-08T06:11:29;93876.06;;;22.41;51.40
75219;BME280;63801;49.414;19.474;2023-08-08T06:13:30;93859.03;;;22.30;51.25
75219;BME280;63801;49.414;19.474;2023-08-08T06:15:30;93876.91;;;22.61;52.19
75219;BME280;63801;49.414;19.474;2023-08-08T06:17:30;93888.38;;;22.33;50.13
75219;BME280;63801;49.414;19.474;2023-08-08T06:19:31;93890.13;;;21.73;51.07
75219;BME280;63801;49.414;19.474;2023-08-08T06:21:31;93885.47;;;20.83;51.03
75219;BME280;63801;49.414;19.474;2023-08-08T06:23:31;93890.69;;;19.85;51.37
75219;BME280;63801;49.414;19.474;2023-08-08T06:25:32;93876.78;;;18.96;52.50
75219;BME280;63801;49.414;19.474;2023-08-08T06:27:32;93897.28;;;18.20;53.64
75219;BME280;63801;49.414;19.474;2023-08-08T06:29:32;93890.31;;;17.63;54.92
75219;BME280;63801;49.414;19.474;2023-08-08T06:31:33;93890.97;;;17.10;55.94
75219;BME280;63801;49.414;19.474;2023-08-08T06:33:33;93892.81;;;16.71;56.61
75219;BME280;63801;49.414;19.474;2023-08-08T06:35:33;93894.63;;;16.52;58.08
75219;BME280;63801;49.414;19.474;2023-08-08T06:37:34;93884.53;;;16.49;58.29
75219;BME280;63801;49.414;19.474;2023-08-08T06:39:34;93891.44;;;16.36;58.82
75219;BME280;63801;49.414;19.474;2023-08-08T06:41:35;93888.63;;;16.18;59.17
75219;BME280;63801;49.414;19.474;2023-08-08T06:43:35;93892.75;;;15.98;59.84
75219;BME280;63801;49.414;19.474;2023-08-08T06:45:35;93890.13;;;16.12;61.80
75219;BME280;63801;49.414;19.474;2023-08-08T06:47:36;93894.44;;;16.96;61.32
75219;BME280;63801;49.414;19.474;2023-08-08T06:49:37;93896.13;;;18.07;59.28
75219;BME280;63801;49.414;19.474;2023-08-08T06:51:38;93889.28;;;18.97;57.54
75219;BME280;63801;49.414;19.474;2023-08-08T06:53:38;93892.66;;;19.84;56.90
75219;BME280;63801;49.414;19.474;2023-08-08T06:55:38;93886.00;;;20.67;53.96
75219;BME280;63801;49.414;19.474;2023-08-08T06:57:39;93897.25;;;21.14;53.06
75219;BME280;63801;49.414;19.474;2023-08-08T06:59:39;93876.56;;;20.75;50.85
75219;BME280;63801;49.414;19.474;2023-08-08T07:01:39;93893.13;;;20.20;51.41
75219;BME280;63801;49.414;19.474;2023-08-08T07:03:40;93894.41;;;19.60;52.56
75219;BME280;63801;49.414;19.474;2023-08-08T07:05:40;93899.28;;;19.24;52.89
75219;BME280;63801;49.414;19.474;2023-08-08T07:07:41;93898.72;;;18.78;53.24
75219;BME280;63801;49.414;19.474;2023-08-08T07:09:41;93895.72;;;18.40;53.98
75219;BME280;63801;49.414;19.474;2023-08-08T07:11:42;93895.63;;;18.69;54.92
75219;BME280;63801;49.414;19.474;2023-08-08T07:13:42;93891.75;;;18.66;53.81
75219;BME280;63801;49.414;19.474;2023-08-08T07:15:42;93895.66;;;18.55;54.34
75219;BME280;63801;49.414;19.474;2023-08-08T07:17:43;93889.72;;;18.81;54.79
75219;BME280;63801;49.414;19.474;2023-08-08T07:19:43;93886.41;;;19.21;53.51
75219;BME280;63801;49.414;19.474;2023-08-08T07:21:43;93886.69;;;19.41;52.90
75219;BME280;63801;49.414;19.474;2023-08-08T07:23:44;93884.88;;;19.79;51.60
75219;BME280;63801;49.414;19.474;2023-08-08T07:25:45;93870.03;;;19.80;51.82
75219;BME280;63801;49.414;19.474;2023-08-08T07:27:46;93880.06;;;20.38;51.69
75219;BME280;63801;49.414;19.474;2023-08-08T07:29:47;93884.91;;;20.95;50.32
75219;BME280;63801;49.414;19.474;2023-08-08T07:31:47;93868.66;;;21.41;50.86
75219;BME280;63801;49.414;19.474;2023-08-08T07:33:47;93878.59;;;21.82;48.29
75219;BME280;63801;49.414;19.474;2023-08-08T07:35:48;93872.81;;;22.03;47.34
75219;BME280;63801;49.414;19.474;2023-08-08T07:37:48;93873.25;;;22.25;47.87
75219;BME280;63801;49.414;19.474;2023-08-08T07:39:50;93883.03;;;22.69;47.71
75219;BME280;63801;49.414;19.474;2023-08-08T07:41:52;93883.03;;;23.28;47.42
75219;BME280;63801;49.414;19.474;2023-08-08T07:43:52;93868.00;;;23.68;45.55
75219;BME280;63801;49.414;19.474;2023-08-08T07:45:53;93874.03;;;23.80;44.93
75219;BME280;63801;49.414;19.474;2023-08-08T07:47:53;93870.75;;;23.68;43.68
75219;BME280;63801;49.414;19.474;2023-08-08T07:49:53;93871.50;;;23.33;43.62
75219;BME280;63801;49.414;19.474;2023-08-08T07:51:53;93868.38;;;23.15;42.95
75219;BME280;63801;49.414;19.474;2023-08-08T07:53:54;93870.78;;;22.73;43.41
75219;BME280;63801;49.414;19.474;2023-08-08T07:55:54;93865.28;;;22.73;44.01
75219;BME280;63801;49.414;19.474;2023-08-08T07:57:54;93874.75;;;22.49;45.48
75219;BME280;63801;49.414;19.474;2023-08-08T07:59:55;93875.16;;;22.71;44.79
75219;BME280;63801;49.414;19.474;2023-08-08T08:01:55;93872.91;;;23.05;45.45
75219;BME280;63801;49.414;19.474;2023-08-08T08:03:56;93860.22;;;23.47;44.53
75219;BME280;63801;49.414;19.474;2023-08-08T08:05:56;93866.00;;;23.53;42.16
75219;BME280;63801;49.414;19.474;2023-08-08T08:07:57;93875.13;;;23.30;42.53
75219;BME280;63801;49.414;19.474;2023-08-08T08:09:57;93883.34;;;22.74;43.02
75219;BME280;63801;49.414;19.474;2023-08-08T08:11:58;93885.09;;;22.18;43.75
75219;BME280;63801;49.414;19.474;2023-08-08T08:13:58;93869.22;;;21.56;44.76
75219;BME280;63801;49.414;19.474;2023-08-08T08:15:58;93868.69;;;20.77;45.44
75219;BME280;63801;49.414;19.474;2023-08-08T08:17:59;93872.44;;;20.15;46.20
75219;BME280;63801;49.414;19.474;2023-08-08T08:19:59;93865.06;;;20.12;47.67
75219;BME280;63801;49.414;19.474;2023-08-08T08:22:00;93877.66;;;20.03;47.12
75219;BME280;63801;49.414;19.474;2023-08-08T08:24:01;93874.91;;;19.55;47.15
75219;BME280;63801;49.414;19.474;2023-08-08T08:26:02;93882.44;;;19.37;48.76
75219;BME280;63801;49.414;19.474;2023-08-08T08:28:02;93865.09;;;19.61;48.29
75219;BME280;63801;49.414;19.474;2023-08-08T08:30:06;93856.53;;;20.03;48.39
75219;BME280;63801;49.414;19.474;2023-08-08T08:32:09;93852.63;;;20.76;47.95
75219;BME280;63801;49.414;19.474;2023-08-08T08:34:10;93860.25;;;21.25;46.68
75219;BME280;63801;49.414;19.474;2023-08-08T08:36:10;93857.06;;;21.57;45.07
75219;BME280;63801;49.414;19.474;2023-08-08T08:38:11;93865.22;;;21.61;45.01
75219;BME280;63801;49.414;19.474;2023-08-08T08:40:12;93873.63;;;21.50;44.52
75219;BME280;63801;49.414;19.474;2023-08-08T08:42:13;93846.59;;;21.22;44.68
75219;BME280;63801;49.414;19.474;2023-08-08T08:44:16;93854.00;;;21.25;44.54
75219;BME280;63801;49.414;19.474;2023-08-08T08:46:21;93856.94;;;21.07;44.62
75219;BME280;63801;49.414;19.474;2023-08-08T08:48:22;93842.38;;;20.53;44.87
75219;BME280;63801;49.414;19.474;2023-08-08T08:50:26;93859.38;;;20.34;45.51
75219;BME280;63801;49.414;19.474;2023-08-08T08:52:26;93849.41;;;20.09;46.43
75219;BME280;63801;49.414;19.474;2023-08-08T08:54:28;93850.28;;;20.03;47.08
75219;BME280;63801;49.414;19.474;2023-08-08T08:56:30;93869.16;;;19.90;47.13
75219;BME280;63801;49.414;19.474;2023-08-08T08:58:30;93859.25;;;19.59;47.24
75219;BME280;63801;49.414;19.474;2023-08-08T09:00:31;93859.47;;;19.23;47.82
75219;BME280;63801;49.414;19.474;2023-08-08T09:02:31;93857.34;;;18.83;48.06
75219;BME280;63801;49.414;19.474;2023-08-08T09:04:33;93861.75;;;18.49;48.83
75219;BME280;63801;49.414;19.474;2023-08-08T09:06:35;93883.28;;;18.11;49.22
75219;BME280;63801;49.414;19.474;2023-08-08T09:08:35;93859.16;;;17.67;50.26
75219;BME280;63801;49.414;19.474;2023-08-08T09:10:36;93874.31;;;17.50;51.01
75219;BME280;63801;49.414;19.474;2023-08-08T09:12:36;93876.25;;;17.46;51.78
75219;BME280;63801;49.414;19.474;2023-08-08T09:14:40;93884.03;;;17.41;51.82
75219;BME280;63801;49.414;19.474;2023-08-08T09:16:42;93889.47;;;17.34;52.01
75219;BME280;63801;49.414;19.474;2023-08-08T09:18:42;93877.72;;;17.05;53.12
75219;BME280;63801;49.414;19.474;2023-08-08T09:20:48;93892.47;;;16.86;54.89
75219;BME280;63801;49.414;19.474;2023-08-08T09:22:51;93880.22;;;16.48;55.31
75219;BME280;63801;49.414;19.474;2023-08-08T09:24:52;93878.50;;;16.15;55.62
75219;BME280;63801;49.414;19.474;2023-08-08T09:26:52;93888.09;;;15.99;56.64
75219;BME280;63801;49.414;19.474;2023-08-08T09:28:53;93881.94;;;16.02;57.33
75219;BME280;63801;49.414;19.474;2023-08-08T09:30:53;93878.91;;;16.17;58.30
75219;BME280;63801;49.414;19.474;2023-08-08T09:32:58;93882.09;;;16.34;58.30
75219;BME280;63801;49.414;19.474;2023-08-08T09:34:59;93889.59;;;16.54;58.59
75219;BME280;63801;49.414;19.474;2023-08-08T09:36:59;93863.53;;;16.53;58.10
75219;BME280;63801;49.414;19.474;2023-08-08T09:39:03;93886.19;;;16.72;58.29
75219;BME280;63801;49.414;19.474;2023-08-08T09:41:04;93881.56;;;16.83;57.94
75219;BME280;63801;49.414;19.474;2023-08-08T09:43:07;93890.94;;;16.89;58.27
75219;BME280;63801;49.414;19.474;2023-08-08T09:45:08;93887.44;;;16.92;56.98
75219;BME280;63801;49.414;19.474;2023-08-08T09:47:12;93867.94;;;16.76;56.20
75219;BME280;63801;49.414;19.474;2023-08-08T09:49:13;93877.25;;;16.71;56.09
75219;BME280;63801;49.414;19.474;2023-08-08T09:51:16;93890.44;;;16.62;56.48
75219;BME280;63801;49.414;19.474;2023-08-08T09:53:18;93881.09;;;16.59;56.25
75219;BME280;63801;49.414;19.474;2023-08-08T09:55:19;93865.16;;;16.58;56.00
75219;BME280;63801;49.414;19.474;2023-08-08T09:57:21;93870.94;;;16.56;56.47
75219;BME280;63801;49.414;19.474;2023-08-08T09:59:22;93876.75;;;16.51;56.37
75219;BME280;63801;49.414;19.474;2023-08-08T10:01:22;93873.63;;;16.49;56.70
75219;BME280;63801;49.414;19.474;2023-08-08T10:03:25;93875.19;;;16.50;56.39
75219;BME280;63801;49.414;19.474;2023-08-08T10:05:26;93864.38;;;16.57;57.27
75219;BME280;63801;49.414;19.474;2023-08-08T10:07:27;93860.53;;;16.73;56.72
75219;BME280;63801;49.414;19.474;2023-08-08T10:09:27;93873.44;;;16.97;56.57
75219;BME280;63801;49.414;19.474;2023-08-08T10:11:28;93858.28;;;17.14;56.52
75219;BME280;63801;49.414;19.474;2023-08-08T10:13:30;93869.25;;;17.38;55.80
75219;BME280;63801;49.414;19.474;2023-08-08T10:15:30;93866.91;;;17.47;55.22
75219;BME280;63801;49.414;19.474;2023-08-08T10:17:36;93865.34;;;17.57;54.21
75219;BME280;63801;49.414;19.474;2023-08-08T10:19:37;93873.13;;;17.44;53.91
75219;BME280;63801;49.414;19.474;2023-08-08T10:21:44;93861.44;;;17.40;53.74
75219;BME280;63801;49.414;19.474;2023-08-08T10:23:45;93859.13;;;17.46;54.51
75219;BME280;63801;49.414;19.474;2023-08-08T10:25:48;93849.38;;;17.45;54.21
75219;BME280;63801;49.414;19.474;2023-08-08T10:27:48;93852.88;;;17.45;54.14
75219;BME280;63801;49.414;19.474;2023-08-08T10:29:51;93856.78;;;17.44;53.92
75219;BME280;63801;49.414;19.474;2023-08-08T10:34:02;93854.03;;;17.23;53.88
75219;BME280;63801;49.414;19.474;2023-08-08T10:36:05;93866.47;;;17.17;54.50